Time;durP1;ratioP1;P1;durP2;ratioP2;P2;SDS_P1;SDS_P2;PMS_P1;PMS_P2;Temp;Humidity;BMP_temperature;BMP_pressure;BME280_temperature;BME280_humidity;BME280_pressure;Samples;Min_cycle;Max_cycle;Signal;HPM_P1;HPM_P2
2021/12/20 00:01:50;;;;;;;18.53;10.43;;;;;;;0.72;82.47;96314.56;5046752;28;20194;-65
2021/12/20 00:04:17;;;;;;;17.57;10.67;;;;;;;0.64;82.95;96324.88;5046670;28;20209;-70
2021/12/20 00:06:44;;;;;;;19.13;11.17;;;;;;;0.73;83.42;96317.06;5046509;28;20664;-69
2021/12/20 00:09:11;;;;;;;18.77;11.10;;;;;;;0.76;83.05;96316.19;5046330;28;20205;-69
2021/12/20 00:11:38;;;;;;;20.47;11.27;;;;;;;0.72;83.09;96324.75;5046372;28;20185;-68
2021/12/20 00:14:06;;;;;;;24.10;11.63;;;;;;;0.63;83.20;96314.72;5045001;28;20681;-71
2021/12/20 00:16:33;;;;;;;20.30;11.80;;;;;;;0.74;82.52;96323.81;5046454;28;20240;-69
2021/12/20 00:19:00;;;;;;;21.33;11.73;;;;;;;0.75;81.88;96315.34;5046399;28;20681;-69
2021/12/20 00:21:27;;;;;;;18.57;11.90;;;;;;;0.80;81.93;96307.59;5046451;28;20190;-70
2021/12/20 00:23:54;;;;;;;21.40;12.53;;;;;;;0.89;81.33;96312.50;5046305;28;20186;-67
2021/12/20 00:26:21;;;;;;;18.20;11.37;;;;;;;0.67;82.52;96318.88;5046350;28;20189;-71
2021/12/20 00:28:48;;;;;;;19.37;11.03;;;;;;;0.56;82.69;96325.88;5046252;28;20309;-70
2021/12/20 00:31:15;;;;;;;17.90;10.67;;;;;;;0.59;83.48;96321.59;5046341;28;20181;-69
2021/12/20 00:33:42;;;;;;;16.10;10.40;;;;;;;0.63;83.16;96335.94;5046372;28;20636;-70
2021/12/20 00:36:09;;;;;;;18.47;11.40;;;;;;;0.70;82.07;96339.22;5046390;28;20193;-68
2021/12/20 00:41:24;;;;;;;15.17;9.63;;;;;;;0.61;82.21;96354.66;5046151;28;20577;-71
2021/12/20 00:43:51;;;;;;;15.47;9.80;;;;;;;0.65;82.77;96353.75;5045990;28;20226;-71
2021/12/20 00:46:18;;;;;;;14.57;9.90;;;;;;;0.63;82.63;96358.03;5046095;28;20190;-71
2021/12/20 00:48:45;;;;;;;17.17;10.20;;;;;;;0.57;83.72;96345.41;5046136;28;20182;-67
2021/12/20 00:51:12;;;;;;;16.87;9.77;;;;;;;0.26;84.62;96347.66;5046152;28;20628;-68
2021/12/20 00:53:39;;;;;;;15.63;10.23;;;;;;;0.21;83.80;96351.13;5045969;28;20252;-65
2021/12/20 00:56:06;;;;;;;20.33;11.57;;;;;;;0.11;84.36;96352.13;5046083;28;20198;-67
2021/12/20 00:58:34;;;;;;;19.17;9.77;;;;;;;0.14;84.98;96349.56;5049501;28;20193;-70
2021/12/20 01:01:02;;;;;;;19.60;10.33;;;;;;;0.20;84.44;96339.28;5049625;28;20732;-69
2021/12/20 01:03:30;;;;;;;18.70;10.50;;;;;;;0.19;84.81;96335.03;5049848;28;20202;-70
2021/12/20 01:06:00;;;;;;;17.77;9.63;;;;;;;0.18;84.50;96330.81;5049882;28;20190;-72
2021/12/20 01:08:30;;;;;;;15.60;9.20;;;;;;;0.28;83.97;96327.25;5049730;28;20190;-70
2021/12/20 01:10:58;;;;;;;16.57;10.20;;;;;;;0.05;84.29;96319.16;5049678;28;20760;-69
2021/12/20 01:13:28;;;;;;;14.33;9.20;;;;;;;0.06;84.47;96334.44;5048361;28;20265;-70
2021/12/20 01:15:58;;;;;;;17.33;9.93;;;;;;;0.10;85.15;96330.13;5049426;28;20185;-71
2021/12/20 01:18:25;;;;;;;19.60;11.60;;;;;;;0.26;84.35;96326.44;5048066;28;20683;-70
2021/12/20 01:20:53;;;;;;;34.23;16.33;;;;;;;0.46;84.83;96309.94;5049234;28;20221;-71
2021/12/20 01:23:20;;;;;;;18.33;9.83;;;;;;;0.56;83.74;96311.44;5049270;28;20227;-69
2021/12/20 01:25:47;;;;;;;20.17;9.70;;;;;;;0.54;83.52;96309.78;5049336;28;20224;-71
2021/12/20 01:28:15;;;;;;;16.87;9.77;;;;;;;0.49;82.49;96306.50;5048069;28;20548;-72
2021/12/20 01:30:43;;;;;;;16.10;9.33;;;;;;;0.64;83.09;96306.19;5049280;28;20189;-70
2021/12/20 01:33:12;;;;;;;11.97;8.10;;;;;;;0.70;81.98;96313.75;5049022;28;20280;-67
2021/12/20 01:35:40;;;;;;;14.97;8.40;;;;;;;0.68;82.62;96308.66;5049065;28;20236;-67
2021/12/20 01:38:08;;;;;;;15.80;8.70;;;;;;;0.82;83.07;96316.88;5049140;28;20225;-67
2021/12/20 01:40:36;;;;;;;15.47;9.20;;;;;;;0.82;82.02;96300.78;5049076;28;20645;-68
2021/12/20 01:43:05;;;;;;;14.20;8.47;;;;;;;0.79;81.90;96305.91;5048810;28;20261;-68
2021/12/20 01:45:32;;;;;;;14.37;8.67;;;;;;;0.82;82.87;96305.88;5049038;28;20178;-65
2021/12/20 01:48:06;;;;;;;13.93;8.50;;;;;;;0.81;82.17;96310.13;5049032;28;20186;-69
2021/12/20 01:53:24;;;;;;;15.17;8.77;;;;;;;0.95;81.97;96302.19;5048669;28;20315;-68
2021/12/20 01:55:53;;;;;;;16.93;9.37;;;;;;;0.85;81.79;96300.69;5048949;28;20189;-69
2021/12/20 01:58:22;;;;;;;15.43;9.57;;;;;;;0.84;81.86;96302.38;5048853;28;20190;-70
2021/12/20 02:03:31;;;;;;;12.93;8.07;;;;;;;0.78;82.98;96299.97;5048980;28;20213;-69
2021/12/20 02:06:01;;;;;;;11.97;7.33;;;;;;;0.82;82.08;96308.41;5048394;28;20231;-66
2021/12/20 02:08:29;;;;;;;9.67;7.20;;;;;;;0.73;82.51;96311.97;5046967;28;20272;-71
2021/12/20 02:11:09;;;;;;;9.40;6.60;;;;;;;0.82;81.63;96309.22;5048529;28;20201;-66
2021/12/20 02:13:39;;;;;;;9.83;6.27;;;;;;;0.92;81.61;96317.56;5048481;28;20194;-67
2021/12/20 02:16:07;;;;;;;10.57;6.60;;;;;;;0.96;82.26;96296.22;5048727;28;20233;-66
2021/12/20 02:18:35;;;;;;;8.97;6.23;;;;;;;1.06;80.98;96300.25;5063216;28;20195;-69
2021/12/20 02:21:03;;;;;;;9.63;6.07;;;;;;;1.09;81.65;96301.91;5048365;28;20232;-66
2021/12/20 02:23:30;;;;;;;11.80;6.67;;;;;;;1.21;80.77;96310.16;5048224;28;20198;-68
2021/12/20 02:25:59;;;;;;;8.57;5.27;;;;;;;1.10;81.72;96296.78;5048427;28;20198;-70
2021/12/20 02:28:31;;;;;;;12.37;7.43;;;;;;;1.08;81.60;96301.06;5046866;28;20217;-72
2021/12/20 02:39:20;;;;;;;14.23;6.80;;;;;;;1.44;81.37;96302.81;5047956;28;20185;-68
2021/12/20 02:41:47;;;;;;;12.37;8.10;;;;;;;1.45;81.12;96296.00;5046584;28;20286;-70
2021/12/20 02:44:19;;;;;;;13.93;7.83;;;;;;;1.43;81.78;96293.50;5047472;28;20233;-70
2021/12/20 02:49:24;;;;;;;13.70;7.13;;;;;;;1.60;80.99;96285.47;5047961;28;20793;-70
2021/12/20 02:51:53;;;;;;;14.80;7.90;;;;;;;1.54;80.91;96290.72;5047785;28;20192;-67
2021/12/20 02:54:22;;;;;;;15.60;7.63;;;;;;;1.51;81.77;96294.16;5047682;28;20197;-66
2021/12/20 02:56:50;;;;;;;12.87;6.47;;;;;;;1.46;81.25;96275.56;5047602;28;20641;-65
2021/12/20 02:59:18;;;;;;;12.53;7.13;;;;;;;1.65;80.59;96276.81;5046086;28;20197;-67
2021/12/20 03:01:59;;;;;;;12.73;6.40;;;;;;;1.60;80.86;96267.59;5062607;28;20681;-69
2021/12/20 03:04:26;;;;;;;13.70;7.43;;;;;;;1.70;81.50;96276.72;5047331;28;20660;-68
2021/12/20 03:07:00;;;;;;;13.20;7.63;;;;;;;1.75;81.70;96276.63;5047676;28;20237;-64
2021/12/20 03:09:32;;;;;;;11.57;7.47;;;;;;;1.70;81.73;96303.94;5047464;28;20746;-67
2021/12/20 03:12:00;;;;;;;9.97;6.53;;;;;;;1.59;82.00;96265.91;5047221;28;20276;-65
2021/12/20 03:14:33;;;;;;;9.77;6.70;;;;;;;1.62;81.43;96264.16;5047180;28;20196;-70
2021/12/20 03:17:02;;;;;;;9.40;5.97;;;;;;;1.67;80.70;96259.75;5047156;28;20289;-67
2021/12/20 03:19:29;;;;;;;10.03;6.57;;;;;;;1.58;82.40;96270.22;5046317;28;20200;-70
2021/12/20 03:21:56;;;;;;;9.67;6.57;;;;;;;1.58;82.93;96260.00;5047392;28;20685;-71
2021/12/20 03:24:24;;;;;;;12.47;6.50;;;;;;;1.60;82.29;96268.47;5047163;28;20208;-69
2021/12/20 03:26:52;;;;;;;12.63;7.03;;;;;;;1.64;82.46;96275.16;5045750;28;20301;-68
2021/12/20 03:29:19;;;;;;;21.43;10.30;;;;;;;1.63;82.32;96272.63;5046958;28;20217;-67
2021/12/20 03:31:46;;;;;;;10.23;6.80;;;;;;;1.64;82.83;96259.00;5046816;28;20190;-71
2021/12/20 03:34:18;;;;;;;11.87;7.13;;;;;;;1.74;82.15;96269.81;5047118;28;20198;-70
2021/12/20 03:36:45;;;;;;;12.40;7.77;;;;;;;1.63;82.42;96293.03;5046919;28;20209;-69
2021/12/20 03:39:12;;;;;;;10.50;7.03;;;;;;;1.53;83.41;96287.31;5046953;28;20186;-67
2021/12/20 03:41:40;;;;;;;13.77;7.93;;;;;;;1.57;83.18;96295.72;5046775;28;20697;-70
2021/12/20 03:44:07;;;;;;;13.07;7.20;;;;;;;1.59;83.98;96297.38;5046566;28;20738;-71
2021/12/20 03:46:35;;;;;;;11.80;7.13;;;;;;;1.64;83.26;96294.72;5046684;28;20189;-69
2021/12/20 03:49:04;;;;;;;11.90;7.53;;;;;;;1.74;82.39;96288.53;5046976;28;20643;-70
2021/12/20 03:51:32;;;;;;;11.77;6.73;;;;;;;1.78;82.33;96286.72;5046673;28;20189;-70
2021/12/20 03:53:59;;;;;;;12.37;7.23;;;;;;;1.83;82.54;96269.63;5046703;28;20604;-71
2021/12/20 03:56:26;;;;;;;11.43;8.20;;;;;;;1.95;81.44;96275.25;5046652;28;20194;-66
2021/12/20 03:58:53;;;;;;;12.33;7.17;;;;;;;2.10;81.21;96274.03;5046915;28;20195;-68
2021/12/20 04:01:20;;;;;;;14.50;6.97;;;;;;;2.17;80.12;96283.22;5046496;28;20252;-69
2021/12/20 04:03:49;;;;;;;41.23;14.97;;;;;;;2.26;79.56;96285.53;5046421;28;20189;-69
2021/12/20 04:06:17;;;;;;;28.00;12.80;;;;;;;2.25;79.09;96279.59;5051692;28;20199;-67
2021/12/20 04:08:44;;;;;;;18.90;9.67;;;;;;;2.28;79.05;96288.91;5064631;28;20199;-69
2021/12/20 04:11:11;;;;;;;14.57;9.80;;;;;;;2.33;78.96;96292.16;5066446;28;20203;-68
2021/12/20 04:13:38;;;;;;;11.93;6.60;;;;;;;2.44;78.78;96295.28;5070591;28;20200;-69
2021/12/20 04:16:05;;;;;;;11.83;7.10;;;;;;;2.52;78.21;96292.50;5066692;28;20208;-66
2021/12/20 04:18:32;;;;;;;10.30;6.73;;;;;;;2.59;78.78;96283.81;5046700;28;20288;-69
2021/12/20 04:21:05;;;;;;;11.40;6.57;;;;;;;2.61;78.95;96285.47;5046348;28;20759;-67
2021/12/20 04:23:32;;;;;;;10.23;6.30;;;;;;;2.60;78.89;96276.09;5046351;28;20748;-68
2021/12/20 04:26:00;;;;;;;10.37;6.47;;;;;;;2.47;78.90;96270.47;5046381;28;20704;-70
2021/12/20 04:28:27;;;;;;;10.53;6.77;;;;;;;2.60;79.29;96275.28;5047166;28;20279;-71
2021/12/20 04:30:54;;;;;;;18.27;10.20;;;;;;;2.65;78.71;96273.44;5067724;28;20217;-68
2021/12/20 04:33:21;;;;;;;16.00;8.50;;;;;;;2.64;78.96;96274.31;5070304;28;20200;-71
2021/12/20 04:35:49;;;;;;;15.07;8.53;;;;;;;2.70;78.84;96272.41;5068856;28;20684;-71
2021/12/20 04:38:17;;;;;;;11.93;7.03;;;;;;;2.71;78.92;96284.31;5070166;28;20635;-68
2021/12/20 04:40:44;;;;;;;12.43;7.37;;;;;;;2.75;78.56;96274.84;5069892;28;20217;-66
2021/12/20 04:43:11;;;;;;;13.47;8.27;;;;;;;2.76;78.35;96285.03;5069870;28;20307;-68
2021/12/20 04:45:39;;;;;;;11.67;7.93;;;;;;;2.92;77.92;96278.63;5059674;28;20206;-71
2021/12/20 04:48:07;;;;;;;11.40;6.97;;;;;;;2.81;77.99;96279.78;5049793;28;20193;-70
2021/12/20 04:50:34;;;;;;;9.03;6.43;;;;;;;2.83;78.40;96283.13;5049921;28;20190;-70
2021/12/20 04:53:01;;;;;;;10.20;6.60;;;;;;;2.79;79.10;96287.50;5031987;28;20563;-71
2021/12/20 04:55:30;;;;;;;10.17;6.33;;;;;;;2.83;79.25;96296.78;5049969;28;20975;-69
2021/12/20 04:57:58;;;;;;;8.50;6.33;;;;;;;2.79;78.95;96299.44;5049871;28;20271;-66
2021/12/20 05:00:28;;;;;;;13.27;5.97;;;;;;;2.79;80.04;96292.63;5049611;28;20304;-68
2021/12/20 05:02:57;;;;;;;10.70;6.80;;;;;;;2.88;79.22;96294.09;5049953;28;20185;-69
2021/12/20 05:05:24;;;;;;;10.90;6.47;;;;;;;2.89;79.26;96303.41;5069818;28;20200;-69
2021/12/20 05:07:54;;;;;;;12.17;8.30;;;;;;;2.87;79.52;96292.41;5070079;28;20280;-67
2021/12/20 05:10:31;;;;;;;11.60;7.40;;;;;;;2.93;79.55;96294.78;5069604;28;20208;-69
2021/12/20 05:13:07;;;;;;;9.07;6.33;;;;;;;2.94;80.04;96307.56;5069201;28;20990;-70
2021/12/20 05:15:36;;;;;;;19.63;10.83;;;;;;;2.98;78.92;96304.03;5069617;28;20200;-68
2021/12/20 05:18:05;;;;;;;12.53;7.57;;;;;;;2.92;79.39;96304.19;5069846;28;20276;-66
2021/12/20 05:20:33;;;;;;;12.50;8.07;;;;;;;2.81;79.83;96290.84;5068037;28;20231;-70
2021/12/20 05:23:01;;;;;;;12.17;8.30;;;;;;;2.89;79.47;96303.41;5069557;28;20217;-69
2021/12/20 05:25:30;;;;;;;15.77;10.03;;;;;;;2.86;79.86;96293.28;5069123;28;20193;-70
2021/12/20 05:27:57;;;;;;;16.37;8.63;;;;;;;3.02;78.85;96303.06;5069135;28;20212;-72
2021/12/20 05:30:25;;;;;;;10.90;7.20;;;;;;;3.15;77.69;96306.91;5067746;28;20201;-70
2021/12/20 05:32:53;;;;;;;10.00;5.63;;;;;;;3.30;75.97;96303.94;5068627;28;20251;-72
2021/12/20 05:35:21;;;;;;;8.63;4.23;;;;;;;3.54;74.72;96304.09;5069022;28;20193;-69
2021/12/20 05:37:49;;;;;;;9.33;5.70;;;;;;;3.54;74.79;96304.94;5068992;28;20276;-67
2021/12/20 05:40:18;;;;;;;10.63;7.37;;;;;;;3.41;76.38;96288.25;5068808;28;20291;-70
2021/12/20 05:42:45;;;;;;;12.30;7.23;;;;;;;3.49;76.73;96311.91;5067693;28;20801;-70
2021/12/20 05:45:13;;;;;;;10.27;6.77;;;;;;;3.38;77.46;96326.72;5069144;28;20557;-72
2021/12/20 05:47:40;;;;;;;11.07;6.50;;;;;;;3.22;78.47;96307.59;5068471;28;20216;-69
2021/12/20 05:50:10;;;;;;;11.20;6.50;;;;;;;3.21;77.92;96311.84;5067978;28;20197;-69
2021/12/20 05:52:37;;;;;;;10.70;6.67;;;;;;;3.29;76.62;96315.06;5066793;28;20205;-69
2021/12/20 05:55:06;;;;;;;16.70;8.43;;;;;;;3.36;76.30;96307.19;5068270;28;20193;-70
2021/12/20 05:57:34;;;;;;;9.03;4.77;;;;;;;3.65;73.78;96314.81;5068562;28;20189;-67
2021/12/20 06:00:07;;;;;;;14.57;7.83;;;;;;;3.84;71.98;96301.41;5068289;28;20285;-68
2021/12/20 06:02:43;;;;;;;11.23;7.30;;;;;;;4.13;71.17;96301.34;5067870;28;20205;-71
2021/12/20 06:05:11;;;;;;;3.80;3.33;;;;;;;4.25;69.51;96309.50;5068159;28;20219;-70
2021/12/20 06:07:41;;;;;;;4.00;3.43;;;;;;;4.32;69.30;96308.41;5068417;28;20949;-70
2021/12/20 06:10:11;;;;;;;6.67;4.40;;;;;;;4.35;69.49;96316.81;5068238;28;20415;-69
2021/12/20 06:12:39;;;;;;;6.67;3.53;;;;;;;4.40;69.62;96317.53;5067934;28;20240;-70
2021/12/20 06:15:08;;;;;;;7.63;4.40;;;;;;;4.41;69.58;96316.63;5066667;28;20197;-71
2021/12/20 06:17:35;;;;;;;3.90;3.13;;;;;;;4.48;69.08;96324.94;5066419;28;20262;-70
2021/12/20 06:20:04;;;;;;;9.03;4.00;;;;;;;4.47;69.86;96324.09;5067889;28;20193;-70
2021/12/20 06:22:32;;;;;;;6.13;4.30;;;;;;;4.43;69.57;96330.22;5067475;28;20898;-70
2021/12/20 06:24:59;;;;;;;6.03;3.90;;;;;;;4.39;69.10;96330.41;5067818;28;20181;-70
2021/12/20 06:27:28;;;;;;;7.40;4.20;;;;;;;4.46;68.81;96335.25;5083091;28;20676;-69
2021/12/20 06:29:55;;;;;;;8.70;4.70;;;;;;;4.39;69.28;96340.66;5067707;28;20282;-67
2021/12/20 06:32:22;;;;;;;10.53;4.17;;;;;;;4.42;68.70;96340.53;5067464;28;20212;-69
2021/12/20 06:34:50;;;;;;;6.60;4.23;;;;;;;4.42;68.72;96341.38;5065882;28;20216;-70
2021/12/20 06:37:17;;;;;;;6.50;4.50;;;;;;;4.53;68.98;96338.47;5067727;28;20193;-68
2021/12/20 06:39:44;;;;;;;5.03;3.77;;;;;;;4.54;68.17;96335.84;5067149;28;20230;-69
2021/12/20 06:42:11;;;;;;;4.73;3.40;;;;;;;4.60;67.63;96338.19;5067115;28;20767;-68
2021/12/20 06:44:38;;;;;;;6.20;4.20;;;;;;;4.65;67.21;96344.03;5067376;28;20708;-70
2021/12/20 06:47:05;;;;;;;5.30;3.90;;;;;;;4.73;66.31;96328.38;5066110;28;20188;-65
2021/12/20 06:49:32;;;;;;;5.53;3.03;;;;;;;4.87;65.60;96337.25;5067187;28;20189;-69
2021/12/20 06:52:01;;;;;;;3.53;3.00;;;;;;;4.88;66.24;96346.63;5067214;28;20225;-68
2021/12/20 06:54:28;;;;;;;7.47;4.00;;;;;;;4.93;65.68;96339.59;5066598;28;20191;-68
2021/12/20 06:56:55;;;;;;;4.83;3.40;;;;;;;5.05;64.96;96342.66;5065070;28;20193;-70
2021/12/20 06:59:22;;;;;;;5.00;3.50;;;;;;;4.96;65.28;96336.09;5065291;28;20217;-68
2021/12/20 07:01:49;;;;;;;5.23;4.37;;;;;;;4.97;66.04;96344.66;5067023;28;20217;-73
2021/12/20 07:04:17;;;;;;;7.73;4.10;;;;;;;4.97;67.30;96352.34;5066848;28;20185;-68
2021/12/20 07:06:45;;;;;;;4.40;3.60;;;;;;;5.03;66.26;96347.00;5065395;28;20232;-73
2021/12/20 07:09:12;;;;;;;4.50;3.13;;;;;;;5.14;65.18;96355.97;5066508;28;20263;-70
2021/12/20 07:11:41;;;;;;;3.30;2.73;;;;;;;5.17;65.00;96357.59;5066483;28;21032;-67
2021/12/20 07:14:08;;;;;;;4.60;2.93;;;;;;;5.21;65.01;96361.75;5064866;28;20608;-72
2021/12/20 07:16:36;;;;;;;3.40;2.70;;;;;;;4.97;65.10;96331.81;5066644;28;20731;-68
2021/12/20 07:19:05;;;;;;;4.57;3.03;;;;;;;5.18;66.28;96361.81;5066752;28;20285;-69
2021/12/20 07:21:32;;;;;;;6.83;4.30;;;;;;;5.11;66.33;96363.78;5066480;28;20217;-70
2021/12/20 07:23:59;;;;;;;4.70;3.50;;;;;;;5.12;65.66;96351.78;5066756;28;20203;-67
2021/12/20 07:26:27;;;;;;;4.57;2.97;;;;;;;5.25;64.59;96369.28;5066063;28;20571;-68
2021/12/20 07:28:54;;;;;;;4.07;3.23;;;;;;;5.21;65.19;96361.75;5065992;28;20208;-66
2021/12/20 07:31:21;;;;;;;3.73;2.80;;;;;;;5.31;64.31;96365.66;5066045;28;20217;-70
2021/12/20 07:33:52;;;;;;;2.70;2.27;;;;;;;5.31;64.58;96363.06;5066317;28;20202;-69
2021/12/20 07:36:21;;;;;;;4.60;2.83;;;;;;;5.29;64.25;96362.28;5066384;28;20240;-73
2021/12/20 07:38:49;;;;;;;7.40;3.97;;;;;;;5.34;63.54;96357.81;5064792;28;20215;-68
2021/12/20 07:41:21;;;;;;;6.20;3.13;;;;;;;5.32;64.38;96367.31;5065961;28;20332;-73
2021/12/20 07:43:49;;;;;;;10.50;4.00;;;;;;;5.40;63.59;96383.28;5065835;28;20225;-70
2021/12/20 07:46:18;;;;;;;8.23;2.90;;;;;;;5.39;63.29;96368.78;5064714;28;20203;-72
2021/12/20 07:48:46;;;;;;;3.27;2.57;;;;;;;5.43;63.07;96362.63;5065930;28;20285;-65
2021/12/20 07:51:13;;;;;;;4.63;3.20;;;;;;;5.47;62.78;96369.31;5065919;28;20689;-68
2021/12/20 07:53:41;;;;;;;4.37;3.30;;;;;;;5.53;62.78;96374.22;5065806;28;20220;-68
2021/12/20 07:56:09;;;;;;;6.33;3.37;;;;;;;5.56;61.85;96386.97;5065162;28;20197;-67
2021/12/20 07:58:36;;;;;;;4.30;2.93;;;;;;;5.57;62.02;96376.63;5064770;28;20294;-70
2021/12/20 08:01:04;;;;;;;6.53;3.63;;;;;;;5.61;61.35;96378.19;5063152;28;20252;-68
2021/12/20 08:03:34;;;;;;;4.70;2.80;;;;;;;5.58;61.42;96374.91;5065634;28;20201;-74
2021/12/20 08:06:01;;;;;;;3.40;2.70;;;;;;;5.63;61.91;96371.28;5068562;28;20206;-69
2021/12/20 08:08:28;;;;;;;3.00;2.50;;;;;;;5.60;61.66;96365.41;5088061;28;20213;-71
2021/12/20 08:10:56;;;;;;;5.50;3.27;;;;;;;5.65;63.11;96378.91;5071991;28;20205;-71
2021/12/20 08:13:23;;;;;;;2.90;2.47;;;;;;;5.66;62.36;96376.31;5072592;28;20206;-73
2021/12/20 08:15:54;;;;;;;3.83;3.37;;;;;;;5.78;62.33;96398.13;5072175;28;20184;-71
2021/12/20 08:18:21;;;;;;;7.60;3.33;;;;;;;5.83;62.26;96390.25;5072210;28;20745;-69
2021/12/20 08:20:48;;;;;;;8.40;3.83;;;;;;;5.83;62.97;96392.81;5072523;28;20192;-74
2021/12/20 08:23:15;;;;;;;4.37;3.20;;;;;;;5.82;61.76;96397.13;5072339;28;20248;-69
2021/12/20 08:25:43;;;;;;;5.80;3.23;;;;;;;5.79;62.15;96402.34;5073671;28;20266;-71
2021/12/20 08:28:11;;;;;;;4.20;3.13;;;;;;;5.80;61.95;96404.03;5072019;28;20258;-71
2021/12/20 08:30:38;;;;;;;7.90;4.27;;;;;;;5.76;62.63;96392.22;5072312;28;20227;-67
2021/12/20 08:33:06;;;;;;;5.97;3.23;;;;;;;5.89;61.43;96401.16;5071798;28;20278;-65
2021/12/20 08:35:34;;;;;;;8.47;2.43;;;;;;;5.98;60.13;96402.53;5072354;28;20199;-67
2021/12/20 08:38:02;;;;;;;4.13;2.03;;;;;;;6.01;60.46;96402.44;5070526;28;20763;-69
2021/12/20 08:40:29;;;;;;;5.37;2.40;;;;;;;6.06;59.86;96413.38;5072605;28;20188;-69
2021/12/20 08:42:56;;;;;;;2.63;2.03;;;;;;;6.11;60.16;96402.03;5087269;28;20280;-67
2021/12/20 08:45:26;;;;;;;2.40;1.90;;;;;;;6.18;60.43;96411.16;5071953;28;20190;-67
2021/12/20 08:47:53;;;;;;;3.90;2.30;;;;;;;6.17;60.04;96406.06;5072300;28;20728;-64
2021/12/20 08:50:24;;;;;;;3.63;2.20;;;;;;;6.17;59.83;96403.50;5087138;28;20278;-66
2021/12/20 08:52:52;;;;;;;2.33;1.87;;;;;;;6.24;59.54;96398.09;5071606;28;20676;-63
2021/12/20 08:55:22;;;;;;;4.33;2.30;;;;;;;6.18;59.55;96403.44;5071471;28;20204;-67
2021/12/20 08:57:49;;;;;;;2.10;1.90;;;;;;;6.21;59.29;96405.06;5071530;28;20221;-71
2021/12/20 09:00:20;;;;;;;3.23;2.00;;;;;;;6.23;60.77;96405.84;5071715;28;20188;-73
2021/12/20 09:02:49;;;;;;;2.10;1.83;;;;;;;6.21;60.67;96408.47;5071684;28;20214;-71
2021/12/20 09:05:18;;;;;;;2.20;2.00;;;;;;;6.24;60.67;96392.94;5070301;28;20198;-66
2021/12/20 09:07:45;;;;;;;4.50;2.83;;;;;;;6.22;61.04;96392.13;5086576;28;20247;-72
2021/12/20 09:10:15;;;;;;;3.23;2.40;;;;;;;6.29;61.90;96396.16;5087034;28;20221;-72
2021/12/20 09:12:44;;;;;;;1.97;1.60;;;;;;;6.25;61.19;96399.75;5070399;28;20329;-67
2021/12/20 09:15:16;;;;;;;1.87;1.63;;;;;;;6.17;60.35;96393.22;5071763;28;20188;-70
2021/12/20 09:17:49;;;;;;;2.20;2.00;;;;;;;6.14;60.42;96383.91;5069052;28;20195;-71
2021/12/20 09:20:19;;;;;;;2.87;2.20;;;;;;;6.04;61.34;96372.31;5068485;28;20195;-74
2021/12/20 09:22:51;;;;;;;4.80;2.70;;;;;;;6.04;61.52;96372.31;5067970;28;20235;-71
2021/12/20 09:25:24;;;;;;;7.47;3.90;;;;;;;6.07;61.29;96379.06;5067012;28;20202;-66
2021/12/20 09:27:52;;;;;;;10.53;4.60;;;;;;;6.11;60.56;96373.75;5068133;28;20231;-69
2021/12/20 09:30:21;;;;;;;5.57;3.27;;;;;;;6.31;60.74;96391.78;5066755;28;20190;-72
2021/12/20 09:32:48;;;;;;;3.07;2.37;;;;;;;6.49;61.24;96395.38;5068357;28;20584;-71
2021/12/20 09:35:16;;;;;;;2.53;2.33;;;;;;;6.63;60.39;96377.66;5066548;28;20218;-71
2021/12/20 09:37:49;;;;;;;3.07;2.30;;;;;;;6.71;59.50;96401.31;5068165;28;20249;-72
2021/12/20 09:40:17;;;;;;;1.87;1.73;;;;;;;6.67;59.90;96406.66;5067929;28;20242;-73
2021/12/20 09:42:52;;;;;;;3.07;2.17;;;;;;;6.59;58.28;96397.50;5067528;28;20730;-71
2021/12/20 09:45:21;;;;;;;3.57;2.93;;;;;;;6.58;60.41;96395.84;5066300;28;20290;-69
2021/12/20 09:47:50;;;;;;;4.87;2.47;;;;;;;6.44;58.82;96398.13;5067407;28;20203;-69
2021/12/20 09:50:18;;;;;;;4.53;2.43;;;;;;;6.39;59.99;96378.63;5067391;28;20189;-69
2021/12/20 09:52:46;;;;;;;2.57;2.00;;;;;;;6.38;60.93;96402.69;5065695;28;20259;-67
2021/12/20 09:55:15;;;;;;;2.23;2.03;;;;;;;6.39;61.12;96400.03;5067310;28;20263;-69
2021/12/20 09:57:45;;;;;;;3.00;2.30;;;;;;;6.46;61.21;96395.50;5067119;28;20295;-68
2021/12/20 10:00:16;;;;;;;3.77;3.23;;;;;;;6.71;60.37;96395.34;5067019;28;20680;-70
2021/12/20 10:02:44;;;;;;;2.33;2.10;;;;;;;6.88;58.55;96386.03;5065770;28;20654;-71
2021/12/20 10:05:12;;;;;;;3.13;2.20;;;;;;;6.86;57.86;96389.56;5067052;28;20214;-68
2021/12/20 10:07:41;;;;;;;3.83;2.30;;;;;;;6.79;58.01;96372.69;5067285;28;20269;-71
2021/12/20 10:10:12;;;;;;;3.23;2.17;;;;;;;6.79;58.15;96375.28;5066784;28;20280;-71
2021/12/20 10:12:49;;;;;;;3.00;1.70;;;;;;;6.78;58.75;96378.75;5066790;28;20188;-68
2021/12/20 10:15:16;;;;;;;3.03;2.03;;;;;;;6.72;57.40;96363.56;5066877;28;20194;-69
2021/12/20 10:17:58;;;;;;;2.53;1.80;;;;;;;6.80;57.19;96387.25;5066918;28;20191;-69
2021/12/20 10:20:28;;;;;;;4.93;2.10;;;;;;;6.92;57.61;96379.00;5066851;28;20195;-68
2021/12/20 10:23:20;;;;;;;1.60;1.50;;;;;;;6.91;57.17;96374.75;5066951;28;20219;-68
2021/12/20 10:25:49;;;;;;;1.80;1.70;;;;;;;7.04;56.95;96383.66;5066694;28;20249;-65
2021/12/20 10:28:19;;;;;;;1.60;1.50;;;;;;;7.17;56.13;96379.66;5066702;28;20222;-68
2021/12/20 10:30:49;;;;;;;3.30;2.23;;;;;;;7.27;56.69;96384.31;5065415;28;20643;-68
2021/12/20 10:33:22;;;;;;;2.23;1.93;;;;;;;7.15;56.43;96381.47;5067270;28;20236;-74
2021/12/20 10:35:54;;;;;;;2.00;1.77;;;;;;;6.98;56.51;96379.59;5066820;28;20275;-66
2021/12/20 10:38:26;;;;;;;3.77;2.10;;;;;;;6.83;57.43;96375.09;5066856;28;20251;-69
2021/12/20 10:41:19;;;;;;;2.50;1.90;;;;;;;6.77;56.73;96392.50;5082041;28;20239;-71
2021/12/20 10:43:53;;;;;;;2.37;1.67;;;;;;;6.62;57.10;96365.69;5064119;28;20259;-65
2021/12/20 10:46:28;;;;;;;1.70;1.50;;;;;;;6.64;56.96;96381.88;5065406;28;20186;-66
2021/12/20 10:49:02;;;;;;;2.20;2.00;;;;;;;6.57;57.74;96393.34;5065103;28;20335;-71
2021/12/20 10:51:35;;;;;;;1.70;1.60;;;;;;;6.51;57.39;96386.69;5066680;28;20237;-68
2021/12/20 10:54:09;;;;;;;2.47;1.80;;;;;;;6.48;57.08;96409.97;5066682;28;20887;-69
2021/12/20 10:56:48;;;;;;;2.57;1.90;;;;;;;6.53;57.36;96402.88;5066474;28;20698;-74
2021/12/20 10:59:20;;;;;;;4.10;2.03;;;;;;;6.57;56.96;96409.59;5066722;28;20661;-73
2021/12/20 11:04:27;;;;;;;2.93;2.07;;;;;;;6.46;57.85;96410.91;5066435;28;20218;-70
2021/12/20 11:09:04;;;;;;;5.07;3.50;;;;;;;6.59;58.24;96412.13;5065106;28;20198;-72
2021/12/20 11:09:47;;;;;;;4.13;2.73;;;;;;;6.59;57.16;96410.34;5066435;28;20286;-73
2021/12/20 11:12:21;;;;;;;4.40;3.03;;;;;;;6.52;57.61;96416.66;5066404;28;20514;-70
2021/12/20 11:14:51;;;;;;;4.50;3.13;;;;;;;6.49;58.85;96411.63;5066226;28;20212;-71
2021/12/20 11:17:21;;;;;;;3.77;1.80;;;;;;;6.53;59.72;96423.47;5065846;28;20643;-67
2021/12/20 11:19:50;;;;;;;1.90;1.80;;;;;;;6.43;59.46;96411.88;5065977;28;20195;-69
2021/12/20 11:22:24;;;;;;;4.87;3.47;;;;;;;6.52;59.95;96415.81;5066294;28;20218;-72
2021/12/20 11:24:59;;;;;;;3.50;2.43;;;;;;;6.55;60.31;96413.94;5066368;28;20234;-71
2021/12/20 11:27:32;;;;;;;4.80;3.13;;;;;;;6.54;59.01;96422.59;5064650;28;20216;-71
2021/12/20 11:30:18;;;;;;;4.70;3.27;;;;;;;6.54;59.44;96419.16;5066098;28;20210;-71
2021/12/20 11:32:47;;;;;;;5.27;3.53;;;;;;;6.57;59.06;96416.50;5065802;28;20692;-72
2021/12/20 11:35:21;;;;;;;2.33;1.97;;;;;;;6.76;58.61;96429.44;5066220;28;20839;-67
2021/12/20 11:37:49;;;;;;;2.37;2.00;;;;;;;6.72;59.26;96422.75;5066075;28;20212;-68
2021/12/20 11:40:20;;;;;;;3.23;2.27;;;;;;;6.57;59.15;96413.91;5064103;28;20218;-68
2021/12/20 11:42:48;;;;;;;3.80;2.67;;;;;;;6.59;59.03;96412.94;5065574;28;20232;-67
2021/12/20 11:45:17;;;;;;;5.17;2.77;;;;;;;6.55;59.16;96406.25;5064186;28;20218;-71
2021/12/20 11:47:48;;;;;;;2.10;1.90;;;;;;;6.50;57.55;96421.03;5064615;28;20195;-71
2021/12/20 11:50:18;;;;;;;1.50;1.40;;;;;;;6.50;57.72;96439.03;5067030;28;20215;-71
2021/12/20 11:52:48;;;;;;;4.13;2.60;;;;;;;6.48;57.48;96420.25;5066055;28;20245;-67
2021/12/20 11:55:23;;;;;;;2.73;1.73;;;;;;;6.44;57.84;96426.41;5065713;28;20191;-70
2021/12/20 11:57:51;;;;;;;2.20;2.00;;;;;;;6.26;58.37;96388.59;5064233;28;20715;-69
2021/12/20 12:00:22;;;;;;;4.27;2.23;;;;;;;6.46;58.98;96427.19;5065671;28;20216;-70
2021/12/20 12:02:53;;;;;;;6.37;3.53;;;;;;;6.46;58.24;96437.50;5065528;28;20237;-69
2021/12/20 12:05:46;;;;;;;5.37;3.27;;;;;;;6.47;57.33;96446.84;5065773;28;20192;-70
2021/12/20 12:08:31;;;;;;;4.97;3.60;;;;;;;6.46;57.79;96457.22;5065658;28;20666;-70